sensor_id;sensor_type;location;lat;lon;timestamp;P1;durP1;ratioP1;P2;durP2;ratioP2
25057;SDS011;13057;50.978;11.034;2022-07-01T00:00:33;5.97;;;3.75;;
25057;SDS011;13057;50.978;11.034;2022-07-01T00:02:59;5.93;;;3.50;;
25057;SDS011;13057;50.978;11.034;2022-07-01T00:05:26;9.43;;;3.25;;
25057;SDS011;13057;50.978;11.034;2022-07-01T00:07:52;7.88;;;3.17;;
25057;SDS011;13057;50.978;11.034;2022-07-01T00:10:18;8.00;;;3.35;;
25057;SDS011;13057;50.978;11.034;2022-07-01T00:12:45;4.60;;;3.10;;
25057;SDS011;13057;50.978;11.034;2022-07-01T00:15:11;7.78;;;3.20;;
25057;SDS011;13057;50.978;11.034;2022-07-01T00:17:38;7.25;;;3.28;;
25057;SDS011;13057;50.978;11.034;2022-07-01T00:20:05;5.82;;;3.70;;
25057;SDS011;13057;50.978;11.034;2022-07-01T00:22:35;7.80;;;3.40;;
25057;SDS011;13057;50.978;11.034;2022-07-01T00:25:02;5.25;;;3.55;;
25057;SDS011;13057;50.978;11.034;2022-07-01T00:27:28;8.38;;;3.35;;
25057;SDS011;13057;50.978;11.034;2022-07-01T00:29:55;7.82;;;3.50;;
25057;SDS011;13057;50.978;11.034;2022-07-01T00:32:21;5.03;;;3.45;;
25057;SDS011;13057;50.978;11.034;2022-07-01T00:34:48;8.32;;;3.95;;
25057;SDS011;13057;50.978;11.034;2022-07-01T00:37:14;6.60;;;3.75;;
25057;SDS011;13057;50.978;11.034;2022-07-01T00:39:40;7.43;;;4.38;;
25057;SDS011;13057;50.978;11.034;2022-07-01T00:42:07;9.32;;;4.82;;
25057;SDS011;13057;50.978;11.034;2022-07-01T00:44:33;9.45;;;4.63;;
25057;SDS011;13057;50.978;11.034;2022-07-01T00:47:00;7.07;;;4.40;;
25057;SDS011;13057;50.978;11.034;2022-07-01T00:49:28;9.98;;;5.30;;
25057;SDS011;13057;50.978;11.034;2022-07-01T00:51:55;7.85;;;4.60;;
25057;SDS011;13057;50.978;11.034;2022-07-01T00:54:23;10.10;;;4.72;;
25057;SDS011;13057;50.978;11.034;2022-07-01T00:56:49;5.10;;;4.60;;
25057;SDS011;13057;50.978;11.034;2022-07-01T00:59:16;9.55;;;4.82;;
25057;SDS011;13057;50.978;11.034;2022-07-01T01:01:42;9.52;;;4.50;;
25057;SDS011;13057;50.978;11.034;2022-07-01T01:04:09;6.45;;;4.95;;
25057;SDS011;13057;50.978;11.034;2022-07-01T01:06:35;7.35;;;4.57;;
25057;SDS011;13057;50.978;11.034;2022-07-01T01:09:02;7.32;;;4.53;;
25057;SDS011;13057;50.978;11.034;2022-07-01T01:11:29;7.32;;;4.50;;
25057;SDS011;13057;50.978;11.034;2022-07-01T01:13:55;6.63;;;4.78;;
25057;SDS011;13057;50.978;11.034;2022-07-01T01:16:22;8.60;;;4.97;;
25057;SDS011;13057;50.978;11.034;2022-07-01T01:18:51;7.50;;;4.68;;
25057;SDS011;13057;50.978;11.034;2022-07-01T01:21:17;7.90;;;4.53;;
25057;SDS011;13057;50.978;11.034;2022-07-01T01:23:44;7.95;;;5.28;;
25057;SDS011;13057;50.978;11.034;2022-07-01T01:26:18;7.93;;;4.53;;
25057;SDS011;13057;50.978;11.034;2022-07-01T01:28:46;7.28;;;4.57;;
25057;SDS011;13057;50.978;11.034;2022-07-01T01:31:14;8.55;;;4.22;;
25057;SDS011;13057;50.978;11.034;2022-07-01T01:33:40;7.65;;;5.03;;
25057;SDS011;13057;50.978;11.034;2022-07-01T01:36:07;7.72;;;4.95;;
25057;SDS011;13057;50.978;11.034;2022-07-01T01:38:34;6.75;;;4.90;;
25057;SDS011;13057;50.978;11.034;2022-07-01T01:41:02;7.82;;;5.22;;
25057;SDS011;13057;50.978;11.034;2022-07-01T01:43:29;8.65;;;4.63;;
25057;SDS011;13057;50.978;11.034;2022-07-01T01:45:56;8.95;;;4.55;;
25057;SDS011;13057;50.978;11.034;2022-07-01T01:48:22;5.80;;;4.30;;
25057;SDS011;13057;50.978;11.034;2022-07-01T01:50:48;3.90;;;3.45;;
25057;SDS011;13057;50.978;11.034;2022-07-01T01:53:15;7.30;;;5.05;;
25057;SDS011;13057;50.978;11.034;2022-07-01T01:55:42;6.43;;;4.78;;
25057;SDS011;13057;50.978;11.034;2022-07-01T01:58:08;6.88;;;5.07;;
25057;SDS011;13057;50.978;11.034;2022-07-01T02:00:35;5.70;;;5.13;;
25057;SDS011;13057;50.978;11.034;2022-07-01T02:03:01;7.38;;;4.82;;
25057;SDS011;13057;50.978;11.034;2022-07-01T02:05:28;5.93;;;4.60;;
25057;SDS011;13057;50.978;11.034;2022-07-01T02:07:55;5.43;;;4.00;;
25057;SDS011;13057;50.978;11.034;2022-07-01T02:10:21;5.20;;;4.05;;
25057;SDS011;13057;50.978;11.034;2022-07-01T02:12:48;3.33;;;2.78;;
25057;SDS011;13057;50.978;11.034;2022-07-01T02:15:14;6.45;;;4.35;;
25057;SDS011;13057;50.978;11.034;2022-07-01T02:17:40;3.92;;;3.40;;
25057;SDS011;13057;50.978;11.034;2022-07-01T02:20:07;5.30;;;4.20;;
25057;SDS011;13057;50.978;11.034;2022-07-01T02:22:34;7.45;;;4.78;;
25057;SDS011;13057;50.978;11.034;2022-07-01T02:25:00;5.57;;;5.00;;
25057;SDS011;13057;50.978;11.034;2022-07-01T02:27:27;4.40;;;3.17;;
25057;SDS011;13057;50.978;11.034;2022-07-01T02:29:53;10.60;;;5.90;;
25057;SDS011;13057;50.978;11.034;2022-07-01T02:32:20;5.25;;;3.75;;
25057;SDS011;13057;50.978;11.034;2022-07-01T02:34:46;5.82;;;5.22;;
25057;SDS011;13057;50.978;11.034;2022-07-01T02:37:12;5.50;;;5.00;;
25057;SDS011;13057;50.978;11.034;2022-07-01T02:39:38;7.20;;;5.75;;
25057;SDS011;13057;50.978;11.034;2022-07-01T02:42:06;6.50;;;5.78;;
25057;SDS011;13057;50.978;11.034;2022-07-01T02:44:50;7.75;;;5.18;;
25057;SDS011;13057;50.978;11.034;2022-07-01T02:47:18;7.13;;;5.22;;
25057;SDS011;13057;50.978;11.034;2022-07-01T02:49:45;5.95;;;4.65;;
25057;SDS011;13057;50.978;11.034;2022-07-01T02:52:12;7.18;;;5.35;;
25057;SDS011;13057;50.978;11.034;2022-07-01T02:54:38;8.65;;;6.10;;
25057;SDS011;13057;50.978;11.034;2022-07-01T02:57:04;7.30;;;5.97;;
25057;SDS011;13057;50.978;11.034;2022-07-01T02:59:31;10.27;;;6.32;;
25057;SDS011;13057;50.978;11.034;2022-07-01T03:01:57;6.70;;;5.97;;
25057;SDS011;13057;50.978;11.034;2022-07-01T03:04:24;11.80;;;6.32;;
25057;SDS011;13057;50.978;11.034;2022-07-01T03:06:50;7.53;;;6.15;;
25057;SDS011;13057;50.978;11.034;2022-07-01T03:09:16;11.02;;;6.63;;
25057;SDS011;13057;50.978;11.034;2022-07-01T03:11:43;7.25;;;5.28;;
25057;SDS011;13057;50.978;11.034;2022-07-01T03:14:09;8.35;;;5.95;;
25057;SDS011;13057;50.978;11.034;2022-07-01T03:16:36;9.85;;;6.78;;
25057;SDS011;13057;50.978;11.034;2022-07-01T03:19:02;7.93;;;6.15;;
25057;SDS011;13057;50.978;11.034;2022-07-01T03:21:28;8.05;;;5.80;;
25057;SDS011;13057;50.978;11.034;2022-07-01T03:23:55;9.30;;;7.10;;
25057;SDS011;13057;50.978;11.034;2022-07-01T03:26:22;12.80;;;7.30;;
25057;SDS011;13057;50.978;11.034;2022-07-01T03:28:49;7.43;;;4.30;;
25057;SDS011;13057;50.978;11.034;2022-07-01T03:31:15;6.00;;;4.20;;
25057;SDS011;13057;50.978;11.034;2022-07-01T03:33:41;8.07;;;6.40;;
25057;SDS011;13057;50.978;11.034;2022-07-01T03:36:08;10.43;;;7.03;;
25057;SDS011;13057;50.978;11.034;2022-07-01T03:38:34;8.90;;;7.20;;
25057;SDS011;13057;50.978;11.034;2022-07-01T03:41:01;8.63;;;6.57;;
25057;SDS011;13057;50.978;11.034;2022-07-01T03:43:27;14.48;;;7.28;;
25057;SDS011;13057;50.978;11.034;2022-07-01T03:45:53;5.70;;;4.70;;
25057;SDS011;13057;50.978;11.034;2022-07-01T03:48:20;4.60;;;3.60;;
25057;SDS011;13057;50.978;11.034;2022-07-01T03:50:46;8.05;;;6.90;;
25057;SDS011;13057;50.978;11.034;2022-07-01T03:53:12;11.35;;;7.03;;
25057;SDS011;13057;50.978;11.034;2022-07-01T03:55:57;5.43;;;4.78;;
25057;SDS011;13057;50.978;11.034;2022-07-01T03:58:23;10.38;;;6.30;;
25057;SDS011;13057;50.978;11.034;2022-07-01T04:00:50;7.95;;;6.80;;
25057;SDS011;13057;50.978;11.034;2022-07-01T04:03:16;7.40;;;5.72;;
25057;SDS011;13057;50.978;11.034;2022-07-01T04:05:42;8.63;;;6.35;;
25057;SDS011;13057;50.978;11.034;2022-07-01T04:08:09;7.35;;;6.15;;
25057;SDS011;13057;50.978;11.034;2022-07-01T04:10:36;7.72;;;5.85;;
25057;SDS011;13057;50.978;11.034;2022-07-01T04:13:04;3.95;;;3.30;;
25057;SDS011;13057;50.978;11.034;2022-07-01T04:15:31;6.15;;;4.68;;
25057;SDS011;13057;50.978;11.034;2022-07-01T04:17:57;6.55;;;4.60;;
25057;SDS011;13057;50.978;11.034;2022-07-01T04:20:24;7.78;;;4.70;;
25057;SDS011;13057;50.978;11.034;2022-07-01T04:22:50;5.00;;;3.17;;
25057;SDS011;13057;50.978;11.034;2022-07-01T04:25:17;5.55;;;4.75;;
25057;SDS011;13057;50.978;11.034;2022-07-01T04:27:43;7.43;;;4.35;;
25057;SDS011;13057;50.978;11.034;2022-07-01T04:30:10;11.88;;;5.10;;
25057;SDS011;13057;50.978;11.034;2022-07-01T04:32:37;4.90;;;4.22;;
25057;SDS011;13057;50.978;11.034;2022-07-01T04:35:04;5.90;;;4.40;;
25057;SDS011;13057;50.978;11.034;2022-07-01T04:37:30;5.93;;;3.40;;
25057;SDS011;13057;50.978;11.034;2022-07-01T04:39:57;5.32;;;4.35;;
25057;SDS011;13057;50.978;11.034;2022-07-01T04:42:23;8.82;;;4.28;;
25057;SDS011;13057;50.978;11.034;2022-07-01T04:44:50;4.15;;;3.65;;
25057;SDS011;13057;50.978;11.034;2022-07-01T04:47:16;5.80;;;3.70;;
25057;SDS011;13057;50.978;11.034;2022-07-01T04:49:43;4.53;;;3.50;;
25057;SDS011;13057;50.978;11.034;2022-07-01T04:52:09;5.88;;;3.15;;
25057;SDS011;13057;50.978;11.034;2022-07-01T04:54:36;4.13;;;3.15;;
25057;SDS011;13057;50.978;11.034;2022-07-01T04:57:02;3.97;;;3.20;;
25057;SDS011;13057;50.978;11.034;2022-07-01T04:59:28;3.65;;;3.30;;
25057;SDS011;13057;50.978;11.034;2022-07-01T05:01:55;7.25;;;3.13;;
25057;SDS011;13057;50.978;11.034;2022-07-01T05:04:24;2.90;;;2.55;;
25057;SDS011;13057;50.978;11.034;2022-07-01T05:06:53;3.80;;;2.72;;
25057;SDS011;13057;50.978;11.034;2022-07-01T05:09:19;4.57;;;2.83;;
25057;SDS011;13057;50.978;11.034;2022-07-01T05:11:45;3.22;;;2.58;;
25057;SDS011;13057;50.978;11.034;2022-07-01T05:14:12;4.50;;;3.08;;
25057;SDS011;13057;50.978;11.034;2022-07-01T05:16:38;3.40;;;3.08;;
25057;SDS011;13057;50.978;11.034;2022-07-01T05:19:05;8.00;;;3.40;;
25057;SDS011;13057;50.978;11.034;2022-07-01T05:21:49;6.00;;;3.20;;
25057;SDS011;13057;50.978;11.034;2022-07-01T05:24:22;4.22;;;3.13;;
25057;SDS011;13057;50.978;11.034;2022-07-01T05:26:50;6.15;;;3.80;;
25057;SDS011;13057;50.978;11.034;2022-07-01T05:29:16;4.80;;;3.78;;
25057;SDS011;13057;50.978;11.034;2022-07-01T05:31:43;5.53;;;3.60;;
25057;SDS011;13057;50.978;11.034;2022-07-01T05:34:09;7.50;;;3.47;;
25057;SDS011;13057;50.978;11.034;2022-07-01T05:36:35;4.40;;;3.55;;
25057;SDS011;13057;50.978;11.034;2022-07-01T05:39:02;5.22;;;3.47;;
25057;SDS011;13057;50.978;11.034;2022-07-01T05:41:28;6.53;;;3.63;;
25057;SDS011;13057;50.978;11.034;2022-07-01T05:43:55;3.63;;;3.03;;
25057;SDS011;13057;50.978;11.034;2022-07-01T05:46:21;4.28;;;3.33;;
25057;SDS011;13057;50.978;11.034;2022-07-01T05:48:47;4.90;;;2.67;;
25057;SDS011;13057;50.978;11.034;2022-07-01T05:51:14;3.90;;;2.80;;
25057;SDS011;13057;50.978;11.034;2022-07-01T05:53:40;4.28;;;3.03;;
25057;SDS011;13057;50.978;11.034;2022-07-01T05:56:08;4.07;;;3.17;;
25057;SDS011;13057;50.978;11.034;2022-07-01T05:58:35;2.95;;;2.60;;
25057;SDS011;13057;50.978;11.034;2022-07-01T06:01:02;6.68;;;2.88;;
25057;SDS011;13057;50.978;11.034;2022-07-01T06:03:29;5.20;;;3.22;;
25057;SDS011;13057;50.978;11.034;2022-07-01T06:05:55;3.90;;;2.70;;
25057;SDS011;13057;50.978;11.034;2022-07-01T06:08:21;3.28;;;2.58;;
25057;SDS011;13057;50.978;11.034;2022-07-01T06:10:48;6.78;;;3.20;;
25057;SDS011;13057;50.978;11.034;2022-07-01T06:13:14;4.55;;;3.03;;
25057;SDS011;13057;50.978;11.034;2022-07-01T06:15:41;5.18;;;3.30;;
25057;SDS011;13057;50.978;11.034;2022-07-01T06:18:08;3.95;;;2.50;;
25057;SDS011;13057;50.978;11.034;2022-07-01T06:20:34;4.28;;;3.45;;
25057;SDS011;13057;50.978;11.034;2022-07-01T06:23:00;4.93;;;3.35;;
25057;SDS011;13057;50.978;11.034;2022-07-01T06:25:27;6.65;;;3.58;;
25057;SDS011;13057;50.978;11.034;2022-07-01T06:27:53;5.60;;;3.88;;
25057;SDS011;13057;50.978;11.034;2022-07-01T06:30:19;10.60;;;4.15;;
25057;SDS011;13057;50.978;11.034;2022-07-01T06:32:46;7.38;;;3.83;;
25057;SDS011;13057;50.978;11.034;2022-07-01T06:35:12;4.72;;;4.03;;
25057;SDS011;13057;50.978;11.034;2022-07-01T06:37:39;4.45;;;3.80;;
25057;SDS011;13057;50.978;11.034;2022-07-01T06:40:05;8.20;;;4.40;;
25057;SDS011;13057;50.978;11.034;2022-07-01T06:42:32;7.38;;;3.90;;
25057;SDS011;13057;50.978;11.034;2022-07-01T06:45:00;6.43;;;4.10;;
25057;SDS011;13057;50.978;11.034;2022-07-01T06:47:27;9.25;;;5.45;;
25057;SDS011;13057;50.978;11.034;2022-07-01T06:49:53;7.13;;;4.47;;
25057;SDS011;13057;50.978;11.034;2022-07-01T06:52:19;7.95;;;4.35;;
25057;SDS011;13057;50.978;11.034;2022-07-01T06:54:46;6.53;;;4.03;;
25057;SDS011;13057;50.978;11.034;2022-07-01T06:57:12;10.68;;;4.40;;
25057;SDS011;13057;50.978;11.034;2022-07-01T06:59:39;5.50;;;4.28;;
25057;SDS011;13057;50.978;11.034;2022-07-01T07:02:06;5.38;;;4.00;;
25057;SDS011;13057;50.978;11.034;2022-07-01T07:04:33;7.80;;;4.10;;
25057;SDS011;13057;50.978;11.034;2022-07-01T07:07:02;6.07;;;3.85;;
25057;SDS011;13057;50.978;11.034;2022-07-01T07:09:29;4.35;;;3.40;;
25057;SDS011;13057;50.978;11.034;2022-07-01T07:11:55;7.10;;;3.70;;
25057;SDS011;13057;50.978;11.034;2022-07-01T07:14:21;9.63;;;3.70;;
25057;SDS011;13057;50.978;11.034;2022-07-01T07:16:48;8.90;;;4.20;;
25057;SDS011;13057;50.978;11.034;2022-07-01T07:19:16;7.13;;;3.70;;
25057;SDS011;13057;50.978;11.034;2022-07-01T07:21:42;8.90;;;3.22;;
25057;SDS011;13057;50.978;11.034;2022-07-01T07:24:09;6.75;;;3.70;;
25057;SDS011;13057;50.978;11.034;2022-07-01T07:26:35;5.32;;;3.50;;
25057;SDS011;13057;50.978;11.034;2022-07-01T07:29:02;6.63;;;3.63;;
25057;SDS011;13057;50.978;11.034;2022-07-01T07:31:28;4.28;;;3.28;;
25057;SDS011;13057;50.978;11.034;2022-07-01T07:33:55;4.10;;;3.25;;
25057;SDS011;13057;50.978;11.034;2022-07-01T07:36:21;4.57;;;3.47;;
25057;SDS011;13057;50.978;11.034;2022-07-01T07:38:47;7.03;;;3.38;;
25057;SDS011;13057;50.978;11.034;2022-07-01T07:41:15;6.25;;;3.78;;
25057;SDS011;13057;50.978;11.034;2022-07-01T07:43:41;5.78;;;3.88;;
25057;SDS011;13057;50.978;11.034;2022-07-01T07:46:08;5.88;;;4.63;;
25057;SDS011;13057;50.978;11.034;2022-07-01T07:48:34;5.10;;;3.70;;
25057;SDS011;13057;50.978;11.034;2022-07-01T07:51:01;5.53;;;4.45;;
25057;SDS011;13057;50.978;11.034;2022-07-01T07:53:27;7.43;;;4.32;;
25057;SDS011;13057;50.978;11.034;2022-07-01T07:55:53;6.32;;;4.05;;
25057;SDS011;13057;50.978;11.034;2022-07-01T07:58:20;5.00;;;4.18;;
25057;SDS011;13057;50.978;11.034;2022-07-01T08:00:46;5.60;;;3.63;;
25057;SDS011;13057;50.978;11.034;2022-07-01T08:03:12;4.50;;;3.22;;
25057;SDS011;13057;50.978;11.034;2022-07-01T08:05:39;4.80;;;3.10;;
25057;SDS011;13057;50.978;11.034;2022-07-01T08:08:05;6.28;;;3.45;;
25057;SDS011;13057;50.978;11.034;2022-07-01T08:10:32;3.83;;;3.20;;
25057;SDS011;13057;50.978;11.034;2022-07-01T08:12:58;6.18;;;2.88;;
25057;SDS011;13057;50.978;11.034;2022-07-01T08:15:30;6.72;;;2.90;;
25057;SDS011;13057;50.978;11.034;2022-07-01T08:17:59;3.22;;;2.70;;
25057;SDS011;13057;50.978;11.034;2022-07-01T08:20:27;2.92;;;2.35;;
25057;SDS011;13057;50.978;11.034;2022-07-01T08:22:53;4.63;;;2.55;;
25057;SDS011;13057;50.978;11.034;2022-07-01T08:25:20;3.05;;;2.58;;
25057;SDS011;13057;50.978;11.034;2022-07-01T08:27:46;3.70;;;2.65;;
25057;SDS011;13057;50.978;11.034;2022-07-01T08:30:13;5.35;;;3.45;;
25057;SDS011;13057;50.978;11.034;2022-07-01T08:32:39;4.30;;;2.85;;
25057;SDS011;13057;50.978;11.034;2022-07-01T08:35:05;2.80;;;2.33;;
25057;SDS011;13057;50.978;11.034;2022-07-01T08:37:32;5.68;;;2.78;;
25057;SDS011;13057;50.978;11.034;2022-07-01T08:39:59;4.30;;;2.88;;
25057;SDS011;13057;50.978;11.034;2022-07-01T08:42:25;5.13;;;3.00;;
25057;SDS011;13057;50.978;11.034;2022-07-01T08:44:51;3.30;;;2.80;;
25057;SDS011;13057;50.978;11.034;2022-07-01T08:47:18;4.90;;;3.30;;
25057;SDS011;13057;50.978;11.034;2022-07-01T08:49:44;4.30;;;2.95;;
25057;SDS011;13057;50.978;11.034;2022-07-01T08:52:11;4.40;;;3.05;;
25057;SDS011;13057;50.978;11.034;2022-07-01T08:54:37;4.13;;;3.20;;
25057;SDS011;13057;50.978;11.034;2022-07-01T08:57:05;5.55;;;2.97;;
25057;SDS011;13057;50.978;11.034;2022-07-01T08:59:31;6.85;;;3.40;;
25057;SDS011;13057;50.978;11.034;2022-07-01T09:02:02;4.03;;;3.00;;
25057;SDS011;13057;50.978;11.034;2022-07-01T09:04:30;7.32;;;3.38;;
25057;SDS011;13057;50.978;11.034;2022-07-01T09:07:04;5.35;;;3.55;;
25057;SDS011;13057;50.978;11.034;2022-07-01T09:09:36;5.53;;;3.60;;
25057;SDS011;13057;50.978;11.034;2022-07-01T09:12:03;4.20;;;3.28;;
25057;SDS011;13057;50.978;11.034;2022-07-01T09:14:31;4.57;;;3.25;;
25057;SDS011;13057;50.978;11.034;2022-07-01T09:17:00;4.80;;;3.30;;
25057;SDS011;13057;50.978;11.034;2022-07-01T09:19:29;7.15;;;3.45;;
25057;SDS011;13057;50.978;11.034;2022-07-01T09:21:59;4.05;;;3.00;;
25057;SDS011;13057;50.978;11.034;2022-07-01T09:24:36;3.85;;;2.92;;
25057;SDS011;13057;50.978;11.034;2022-07-01T09:27:08;5.47;;;2.97;;
25057;SDS011;13057;50.978;11.034;2022-07-01T09:29:42;4.32;;;2.85;;
25057;SDS011;13057;50.978;11.034;2022-07-01T09:32:10;3.40;;;2.67;;
25057;SDS011;13057;50.978;11.034;2022-07-01T09:37:15;4.40;;;3.00;;
25057;SDS011;13057;50.978;11.034;2022-07-01T09:39:46;3.78;;;2.88;;
25057;SDS011;13057;50.978;11.034;2022-07-01T09:42:18;6.93;;;3.15;;
25057;SDS011;13057;50.978;11.034;2022-07-01T09:47:32;4.85;;;3.15;;
25057;SDS011;13057;50.978;11.034;2022-07-01T09:50:00;8.65;;;3.55;;
25057;SDS011;13057;50.978;11.034;2022-07-01T09:52:29;4.10;;;3.30;;
25057;SDS011;13057;50.978;11.034;2022-07-01T09:54:55;5.68;;;3.90;;
25057;SDS011;13057;50.978;11.034;2022-07-01T09:57:22;4.43;;;2.95;;
25057;SDS011;13057;50.978;11.034;2022-07-01T09:59:49;4.88;;;3.42;;
25057;SDS011;13057;50.978;11.034;2022-07-01T10:02:17;5.28;;;3.75;;
25057;SDS011;13057;50.978;11.034;2022-07-01T10:04:50;5.80;;;4.30;;
25057;SDS011;13057;50.978;11.034;2022-07-01T10:12:40;5.20;;;3.60;;
25057;SDS011;13057;50.978;11.034;2022-07-01T10:15:10;4.85;;;3.65;;
25057;SDS011;13057;50.978;11.034;2022-07-01T10:17:41;6.05;;;3.97;;
25057;SDS011;13057;50.978;11.034;2022-07-01T10:20:13;6.70;;;3.78;;
25057;SDS011;13057;50.978;11.034;2022-07-01T10:22:43;5.25;;;3.72;;
25057;SDS011;13057;50.978;11.034;2022-07-01T10:28:24;5.65;;;3.50;;
25057;SDS011;13057;50.978;11.034;2022-07-01T10:33:40;7.43;;;4.47;;
25057;SDS011;13057;50.978;11.034;2022-07-01T10:44:05;8.23;;;4.90;;
25057;SDS011;13057;50.978;11.034;2022-07-01T10:46:40;8.18;;;4.20;;
25057;SDS011;13057;50.978;11.034;2022-07-01T10:51:48;6.25;;;3.78;;
25057;SDS011;13057;50.978;11.034;2022-07-01T10:59:46;2.13;;;1.92;;
25057;SDS011;13057;50.978;11.034;2022-07-01T11:02:26;2.60;;;1.30;;
25057;SDS011;13057;50.978;11.034;2022-07-01T11:04:57;2.05;;;1.10;;
25057;SDS011;13057;50.978;11.034;2022-07-01T11:07:27;3.40;;;1.50;;
25057;SDS011;13057;50.978;11.034;2022-07-01T11:09:58;4.35;;;1.50;;
25057;SDS011;13057;50.978;11.034;2022-07-01T11:12:27;2.65;;;1.45;;
25057;SDS011;13057;50.978;11.034;2022-07-01T11:14:55;2.85;;;1.77;;
25057;SDS011;13057;50.978;11.034;2022-07-01T11:17:27;2.67;;;1.67;;
25057;SDS011;13057;50.978;11.034;2022-07-01T11:19:54;2.28;;;1.75;;
25057;SDS011;13057;50.978;11.034;2022-07-01T11:22:23;2.30;;;1.77;;
25057;SDS011;13057;50.978;11.034;2022-07-01T11:24:59;2.38;;;1.67;;
25057;SDS011;13057;50.978;11.034;2022-07-01T11:27:30;3.60;;;2.50;;
25057;SDS011;13057;50.978;11.034;2022-07-01T11:29:57;3.88;;;2.60;;
25057;SDS011;13057;50.978;11.034;2022-07-01T11:32:33;4.13;;;2.67;;
25057;SDS011;13057;50.978;11.034;2022-07-01T11:35:01;3.60;;;2.20;;
25057;SDS011;13057;50.978;11.034;2022-07-01T11:37:49;2.83;;;2.10;;
25057;SDS011;13057;50.978;11.034;2022-07-01T11:40:34;5.03;;;2.20;;
25057;SDS011;13057;50.978;11.034;2022-07-01T11:43:01;3.72;;;2.47;;
25057;SDS011;13057;50.978;11.034;2022-07-01T11:45:42;3.45;;;2.20;;
25057;SDS011;13057;50.978;11.034;2022-07-01T11:48:09;2.35;;;1.88;;
25057;SDS011;13057;50.978;11.034;2022-07-01T11:50:36;2.75;;;1.85;;
25057;SDS011;13057;50.978;11.034;2022-07-01T11:53:02;2.53;;;1.77;;
25057;SDS011;13057;50.978;11.034;2022-07-01T11:55:29;3.40;;;1.70;;
25057;SDS011;13057;50.978;11.034;2022-07-01T11:57:56;2.60;;;1.70;;
25057;SDS011;13057;50.978;11.034;2022-07-01T12:00:24;2.30;;;1.77;;
25057;SDS011;13057;50.978;11.034;2022-07-01T12:02:59;3.75;;;2.65;;
25057;SDS011;13057;50.978;11.034;2022-07-01T12:05:25;3.40;;;2.35;;
25057;SDS011;13057;50.978;11.034;2022-07-01T12:07:52;3.90;;;2.33;;
25057;SDS011;13057;50.978;11.034;2022-07-01T12:10:23;3.33;;;2.30;;
25057;SDS011;13057;50.978;11.034;2022-07-01T12:12:51;2.35;;;1.70;;
25057;SDS011;13057;50.978;11.034;2022-07-01T12:15:17;3.78;;;2.45;;
25057;SDS011;13057;50.978;11.034;2022-07-01T12:17:45;3.63;;;2.20;;
25057;SDS011;13057;50.978;11.034;2022-07-01T12:20:12;3.30;;;2.10;;
25057;SDS011;13057;50.978;11.034;2022-07-01T12:22:38;3.80;;;2.55;;
25057;SDS011;13057;50.978;11.034;2022-07-01T12:25:07;4.43;;;2.30;;
25057;SDS011;13057;50.978;11.034;2022-07-01T12:27:39;5.22;;;2.80;;
25057;SDS011;13057;50.978;11.034;2022-07-01T12:30:08;4.22;;;2.20;;
25057;SDS011;13057;50.978;11.034;2022-07-01T12:32:38;4.55;;;2.28;;
25057;SDS011;13057;50.978;11.034;2022-07-01T12:35:07;3.58;;;2.75;;
25057;SDS011;13057;50.978;11.034;2022-07-01T12:37:52;2.40;;;2.20;;
25057;SDS011;13057;50.978;11.034;2022-07-01T12:40:23;4.80;;;2.85;;
25057;SDS011;13057;50.978;11.034;2022-07-01T12:42:54;4.88;;;3.00;;
25057;SDS011;13057;50.978;11.034;2022-07-01T12:45:25;3.95;;;2.67;;
25057;SDS011;13057;50.978;11.034;2022-07-01T12:47:54;2.97;;;2.30;;
25057;SDS011;13057;50.978;11.034;2022-07-01T12:50:23;3.40;;;2.40;;
25057;SDS011;13057;50.978;11.034;2022-07-01T12:55:34;5.28;;;2.85;;
25057;SDS011;13057;50.978;11.034;2022-07-01T12:58:06;4.22;;;2.80;;
25057;SDS011;13057;50.978;11.034;2022-07-01T13:00:34;5.70;;;3.75;;
25057;SDS011;13057;50.978;11.034;2022-07-01T13:03:02;4.80;;;3.58;;
25057;SDS011;13057;50.978;11.034;2022-07-01T13:05:30;4.32;;;3.45;;
25057;SDS011;13057;50.978;11.034;2022-07-01T13:07:58;7.82;;;3.40;;
25057;SDS011;13057;50.978;11.034;2022-07-01T13:10:25;4.28;;;3.45;;
25057;SDS011;13057;50.978;11.034;2022-07-01T13:12:52;4.50;;;3.55;;
25057;SDS011;13057;50.978;11.034;2022-07-01T13:15:18;4.40;;;3.42;;
25057;SDS011;13057;50.978;11.034;2022-07-01T13:17:46;4.85;;;3.50;;
25057;SDS011;13057;50.978;11.034;2022-07-01T13:20:13;5.10;;;3.80;;
25057;SDS011;13057;50.978;11.034;2022-07-01T13:22:41;4.80;;;3.35;;
25057;SDS011;13057;50.978;11.034;2022-07-01T13:25:08;4.75;;;3.67;;
25057;SDS011;13057;50.978;11.034;2022-07-01T13:27:36;5.10;;;4.07;;
25057;SDS011;13057;50.978;11.034;2022-07-01T13:30:05;5.32;;;4.07;;
25057;SDS011;13057;50.978;11.034;2022-07-01T13:32:34;5.15;;;3.97;;
25057;SDS011;13057;50.978;11.034;2022-07-01T13:35:01;7.70;;;4.85;;
25057;SDS011;13057;50.978;11.034;2022-07-01T13:37:28;5.78;;;4.40;;
25057;SDS011;13057;50.978;11.034;2022-07-01T13:39:55;5.22;;;3.70;;
25057;SDS011;13057;50.978;11.034;2022-07-01T13:42:22;6.57;;;3.45;;
25057;SDS011;13057;50.978;11.034;2022-07-01T13:44:48;4.70;;;3.55;;
25057;SDS011;13057;50.978;11.034;2022-07-01T13:47:15;5.68;;;4.05;;
25057;SDS011;13057;50.978;11.034;2022-07-01T13:49:42;5.50;;;3.78;;
25057;SDS011;13057;50.978;11.034;2022-07-01T13:52:11;4.82;;;3.90;;
25057;SDS011;13057;50.978;11.034;2022-07-01T13:54:38;6.55;;;4.38;;
25057;SDS011;13057;50.978;11.034;2022-07-01T13:57:05;5.30;;;4.20;;
25057;SDS011;13057;50.978;11.034;2022-07-01T13:59:32;6.45;;;4.05;;
25057;SDS011;13057;50.978;11.034;2022-07-01T14:01:58;5.82;;;4.10;;
25057;SDS011;13057;50.978;11.034;2022-07-01T14:04:25;5.72;;;3.88;;
25057;SDS011;13057;50.978;11.034;2022-07-01T14:06:51;8.25;;;4.70;;
25057;SDS011;13057;50.978;11.034;2022-07-01T14:09:18;5.55;;;4.30;;
25057;SDS011;13057;50.978;11.034;2022-07-01T14:11:45;5.57;;;4.10;;
25057;SDS011;13057;50.978;11.034;2022-07-01T14:14:12;6.95;;;4.93;;
25057;SDS011;13057;50.978;11.034;2022-07-01T14:16:38;6.38;;;4.40;;
25057;SDS011;13057;50.978;11.034;2022-07-01T14:19:04;5.35;;;4.30;;
25057;SDS011;13057;50.978;11.034;2022-07-01T14:21:31;7.40;;;5.53;;
25057;SDS011;13057;50.978;11.034;2022-07-01T14:23:57;5.03;;;4.30;;
25057;SDS011;13057;50.978;11.034;2022-07-01T14:26:24;5.30;;;4.07;;
25057;SDS011;13057;50.978;11.034;2022-07-01T14:28:50;6.97;;;4.88;;
25057;SDS011;13057;50.978;11.034;2022-07-01T14:31:17;6.85;;;4.78;;
25057;SDS011;13057;50.978;11.034;2022-07-01T14:33:44;5.43;;;4.40;;
25057;SDS011;13057;50.978;11.034;2022-07-01T14:36:13;5.40;;;4.18;;
25057;SDS011;13057;50.978;11.034;2022-07-01T14:38:39;6.43;;;4.13;;
25057;SDS011;13057;50.978;11.034;2022-07-01T14:41:06;5.90;;;3.75;;
25057;SDS011;13057;50.978;11.034;2022-07-01T14:43:33;4.88;;;3.63;;
25057;SDS011;13057;50.978;11.034;2022-07-01T14:45:59;4.88;;;3.72;;
25057;SDS011;13057;50.978;11.034;2022-07-01T14:48:29;4.60;;;3.85;;
25057;SDS011;13057;50.978;11.034;2022-07-01T14:50:55;4.90;;;3.95;;
25057;SDS011;13057;50.978;11.034;2022-07-01T14:53:22;4.93;;;4.13;;
25057;SDS011;13057;50.978;11.034;2022-07-01T14:55:48;5.28;;;4.32;;
25057;SDS011;13057;50.978;11.034;2022-07-01T14:58:15;9.13;;;4.90;;
25057;SDS011;13057;50.978;11.034;2022-07-01T15:00:41;5.85;;;4.57;;
25057;SDS011;13057;50.978;11.034;2022-07-01T15:03:07;7.03;;;4.95;;
25057;SDS011;13057;50.978;11.034;2022-07-01T15:05:34;7.20;;;5.15;;
25057;SDS011;13057;50.978;11.034;2022-07-01T15:08:00;6.35;;;4.05;;
25057;SDS011;13057;50.978;11.034;2022-07-01T15:10:27;7.68;;;4.10;;